sensor_id;sensor_type;location;lat;lon;timestamp;P1;durP1;ratioP1;P2;durP2;ratioP2
5730;SDS011;2890;51.950;7.668;2022-11-20T00:01:09;19.73;;;11.67;;
5730;SDS011;2890;51.950;7.668;2022-11-20T00:03:36;26.20;;;16.00;;
5730;SDS011;2890;51.950;7.668;2022-11-20T00:06:06;26.83;;;15.43;;
5730;SDS011;2890;51.950;7.668;2022-11-20T00:08:33;25.33;;;13.80;;
5730;SDS011;2890;51.950;7.668;2022-11-20T00:11:02;27.83;;;13.70;;
5730;SDS011;2890;51.950;7.668;2022-11-20T00:13:30;29.53;;;15.73;;
5730;SDS011;2890;51.950;7.668;2022-11-20T00:15:57;26.00;;;15.67;;
5730;SDS011;2890;51.950;7.668;2022-11-20T00:18:24;31.53;;;17.13;;
5730;SDS011;2890;51.950;7.668;2022-11-20T00:20:51;49.57;;;24.17;;
5730;SDS011;2890;51.950;7.668;2022-11-20T00:23:20;30.63;;;17.57;;
5730;SDS011;2890;51.950;7.668;2022-11-20T00:25:47;29.13;;;15.37;;
5730;SDS011;2890;51.950;7.668;2022-11-20T00:28:29;29.43;;;16.23;;
5730;SDS011;2890;51.950;7.668;2022-11-20T00:31:00;26.47;;;14.77;;
5730;SDS011;2890;51.950;7.668;2022-11-20T00:33:27;28.10;;;15.50;;
5730;SDS011;2890;51.950;7.668;2022-11-20T00:35:58;27.33;;;15.40;;
5730;SDS011;2890;51.950;7.668;2022-11-20T00:38:27;29.00;;;16.20;;
5730;SDS011;2890;51.950;7.668;2022-11-20T00:40:55;23.03;;;13.67;;
5730;SDS011;2890;51.950;7.668;2022-11-20T00:43:23;23.77;;;13.93;;
5730;SDS011;2890;51.950;7.668;2022-11-20T00:45:50;27.87;;;15.83;;
5730;SDS011;2890;51.950;7.668;2022-11-20T00:48:17;25.93;;;14.77;;
5730;SDS011;2890;51.950;7.668;2022-11-20T00:50:44;21.07;;;12.90;;
5730;SDS011;2890;51.950;7.668;2022-11-20T00:53:11;24.03;;;13.63;;
5730;SDS011;2890;51.950;7.668;2022-11-20T00:55:40;20.20;;;13.07;;
5730;SDS011;2890;51.950;7.668;2022-11-20T00:58:07;21.80;;;12.93;;
5730;SDS011;2890;51.950;7.668;2022-11-20T01:00:34;19.20;;;12.23;;
5730;SDS011;2890;51.950;7.668;2022-11-20T01:03:01;19.63;;;11.27;;
5730;SDS011;2890;51.950;7.668;2022-11-20T01:05:28;17.97;;;11.13;;
5730;SDS011;2890;51.950;7.668;2022-11-20T01:07:55;17.90;;;11.93;;
5730;SDS011;2890;51.950;7.668;2022-11-20T01:10:22;18.77;;;11.60;;
5730;SDS011;2890;51.950;7.668;2022-11-20T01:12:51;18.47;;;10.93;;
5730;SDS011;2890;51.950;7.668;2022-11-20T01:15:38;14.80;;;10.63;;
5730;SDS011;2890;51.950;7.668;2022-11-20T01:18:05;17.37;;;11.23;;
5730;SDS011;2890;51.950;7.668;2022-11-20T01:20:33;19.20;;;11.47;;
5730;SDS011;2890;51.950;7.668;2022-11-20T01:23:01;16.10;;;10.47;;
5730;SDS011;2890;51.950;7.668;2022-11-20T01:25:28;19.30;;;11.23;;
5730;SDS011;2890;51.950;7.668;2022-11-20T01:27:57;18.73;;;11.50;;
5730;SDS011;2890;51.950;7.668;2022-11-20T01:30:24;22.03;;;12.70;;
5730;SDS011;2890;51.950;7.668;2022-11-20T01:32:51;22.33;;;11.97;;
5730;SDS011;2890;51.950;7.668;2022-11-20T01:35:18;17.10;;;11.40;;
5730;SDS011;2890;51.950;7.668;2022-11-20T01:37:46;17.50;;;11.20;;
5730;SDS011;2890;51.950;7.668;2022-11-20T01:40:13;17.60;;;11.17;;
5730;SDS011;2890;51.950;7.668;2022-11-20T01:42:44;18.47;;;11.97;;
5730;SDS011;2890;51.950;7.668;2022-11-20T01:48:31;21.77;;;12.60;;
5730;SDS011;2890;51.950;7.668;2022-11-20T01:51:00;19.00;;;12.00;;
5730;SDS011;2890;51.950;7.668;2022-11-20T01:53:29;22.23;;;13.17;;
5730;SDS011;2890;51.950;7.668;2022-11-20T01:55:58;21.83;;;12.57;;
5730;SDS011;2890;51.950;7.668;2022-11-20T01:58:27;23.50;;;14.17;;
5730;SDS011;2890;51.950;7.668;2022-11-20T02:00:55;22.00;;;13.33;;
5730;SDS011;2890;51.950;7.668;2022-11-20T02:03:22;21.70;;;12.43;;
5730;SDS011;2890;51.950;7.668;2022-11-20T02:05:51;18.33;;;11.17;;
5730;SDS011;2890;51.950;7.668;2022-11-20T02:08:20;20.17;;;12.17;;
5730;SDS011;2890;51.950;7.668;2022-11-20T02:10:48;17.37;;;11.33;;
5730;SDS011;2890;51.950;7.668;2022-11-20T02:13:15;16.83;;;11.33;;
5730;SDS011;2890;51.950;7.668;2022-11-20T02:16:00;18.23;;;10.87;;
5730;SDS011;2890;51.950;7.668;2022-11-20T02:18:27;20.83;;;11.67;;
5730;SDS011;2890;51.950;7.668;2022-11-20T02:20:58;19.43;;;11.83;;
5730;SDS011;2890;51.950;7.668;2022-11-20T02:23:28;18.97;;;11.60;;
5730;SDS011;2890;51.950;7.668;2022-11-20T02:25:58;16.17;;;10.83;;
5730;SDS011;2890;51.950;7.668;2022-11-20T02:28:27;19.07;;;12.37;;
5730;SDS011;2890;51.950;7.668;2022-11-20T02:30:59;16.57;;;10.17;;
5730;SDS011;2890;51.950;7.668;2022-11-20T02:33:27;14.97;;;10.40;;
5730;SDS011;2890;51.950;7.668;2022-11-20T02:35:54;20.57;;;10.57;;
5730;SDS011;2890;51.950;7.668;2022-11-20T02:38:21;19.40;;;10.77;;
5730;SDS011;2890;51.950;7.668;2022-11-20T02:40:48;17.67;;;10.83;;
5730;SDS011;2890;51.950;7.668;2022-11-20T02:43:16;19.63;;;10.93;;
5730;SDS011;2890;51.950;7.668;2022-11-20T02:45:44;16.83;;;11.60;;
5730;SDS011;2890;51.950;7.668;2022-11-20T02:48:11;20.47;;;11.77;;
5730;SDS011;2890;51.950;7.668;2022-11-20T02:50:38;18.50;;;11.57;;
5730;SDS011;2890;51.950;7.668;2022-11-20T02:53:06;17.00;;;12.10;;
5730;SDS011;2890;51.950;7.668;2022-11-20T02:55:33;23.60;;;11.47;;
5730;SDS011;2890;51.950;7.668;2022-11-20T02:58:00;20.67;;;14.83;;
5730;SDS011;2890;51.950;7.668;2022-11-20T03:00:28;19.77;;;10.87;;
5730;SDS011;2890;51.950;7.668;2022-11-20T03:02:56;22.17;;;12.10;;
5730;SDS011;2890;51.950;7.668;2022-11-20T03:05:24;15.97;;;10.73;;
5730;SDS011;2890;51.950;7.668;2022-11-20T03:07:51;14.70;;;10.17;;
5730;SDS011;2890;51.950;7.668;2022-11-20T03:10:18;19.03;;;10.97;;
5730;SDS011;2890;51.950;7.668;2022-11-20T03:12:45;23.57;;;14.10;;
5730;SDS011;2890;51.950;7.668;2022-11-20T03:15:12;21.40;;;11.40;;
5730;SDS011;2890;51.950;7.668;2022-11-20T03:17:40;21.93;;;13.90;;
5730;SDS011;2890;51.950;7.668;2022-11-20T03:20:08;16.50;;;9.83;;
5730;SDS011;2890;51.950;7.668;2022-11-20T03:22:35;19.30;;;13.27;;
5730;SDS011;2890;51.950;7.668;2022-11-20T03:25:02;16.77;;;10.57;;
5730;SDS011;2890;51.950;7.668;2022-11-20T03:27:31;18.33;;;11.30;;
5730;SDS011;2890;51.950;7.668;2022-11-20T03:29:58;18.23;;;11.20;;
5730;SDS011;2890;51.950;7.668;2022-11-20T03:32:26;17.43;;;10.83;;
5730;SDS011;2890;51.950;7.668;2022-11-20T03:34:54;17.23;;;11.13;;
5730;SDS011;2890;51.950;7.668;2022-11-20T03:37:21;17.77;;;11.17;;
5730;SDS011;2890;51.950;7.668;2022-11-20T03:39:48;17.53;;;10.77;;
5730;SDS011;2890;51.950;7.668;2022-11-20T03:42:15;17.10;;;10.83;;
5730;SDS011;2890;51.950;7.668;2022-11-20T03:45:06;18.93;;;10.57;;
5730;SDS011;2890;51.950;7.668;2022-11-20T03:47:33;16.97;;;11.77;;
5730;SDS011;2890;51.950;7.668;2022-11-20T03:50:02;17.47;;;10.63;;
5730;SDS011;2890;51.950;7.668;2022-11-20T03:52:29;19.17;;;10.70;;
5730;SDS011;2890;51.950;7.668;2022-11-20T03:54:56;19.03;;;11.73;;
5730;SDS011;2890;51.950;7.668;2022-11-20T03:57:23;16.63;;;10.63;;
5730;SDS011;2890;51.950;7.668;2022-11-20T03:59:50;16.97;;;10.23;;
5730;SDS011;2890;51.950;7.668;2022-11-20T04:02:17;18.07;;;12.93;;
5730;SDS011;2890;51.950;7.668;2022-11-20T04:04:44;17.30;;;10.63;;
5730;SDS011;2890;51.950;7.668;2022-11-20T04:07:13;18.93;;;11.37;;
5730;SDS011;2890;51.950;7.668;2022-11-20T04:09:40;17.53;;;9.60;;
5730;SDS011;2890;51.950;7.668;2022-11-20T04:12:07;17.50;;;10.10;;
5730;SDS011;2890;51.950;7.668;2022-11-20T04:14:34;17.10;;;10.33;;
5730;SDS011;2890;51.950;7.668;2022-11-20T04:17:01;17.03;;;10.30;;
5730;SDS011;2890;51.950;7.668;2022-11-20T04:19:29;18.60;;;11.13;;
5730;SDS011;2890;51.950;7.668;2022-11-20T04:21:57;14.83;;;10.50;;
5730;SDS011;2890;51.950;7.668;2022-11-20T04:24:25;16.37;;;11.13;;
5730;SDS011;2890;51.950;7.668;2022-11-20T04:26:52;15.23;;;10.33;;
5730;SDS011;2890;51.950;7.668;2022-11-20T04:29:20;18.20;;;10.00;;
5730;SDS011;2890;51.950;7.668;2022-11-20T04:31:47;13.23;;;9.77;;
5730;SDS011;2890;51.950;7.668;2022-11-20T04:34:14;18.77;;;10.40;;
5730;SDS011;2890;51.950;7.668;2022-11-20T04:36:41;18.47;;;10.63;;
5730;SDS011;2890;51.950;7.668;2022-11-20T04:39:11;14.67;;;10.17;;
5730;SDS011;2890;51.950;7.668;2022-11-20T04:41:39;18.37;;;10.33;;
5730;SDS011;2890;51.950;7.668;2022-11-20T04:44:06;14.90;;;9.80;;
5730;SDS011;2890;51.950;7.668;2022-11-20T04:46:34;16.87;;;10.33;;
5730;SDS011;2890;51.950;7.668;2022-11-20T04:49:02;17.70;;;10.43;;
5730;SDS011;2890;51.950;7.668;2022-11-20T04:51:29;18.30;;;10.73;;
5730;SDS011;2890;51.950;7.668;2022-11-20T04:53:56;15.50;;;10.10;;
5730;SDS011;2890;51.950;7.668;2022-11-20T04:56:23;13.90;;;10.60;;
5730;SDS011;2890;51.950;7.668;2022-11-20T04:58:52;15.47;;;10.13;;
5730;SDS011;2890;51.950;7.668;2022-11-20T05:01:22;16.60;;;10.03;;
5730;SDS011;2890;51.950;7.668;2022-11-20T05:03:49;17.23;;;9.63;;
5730;SDS011;2890;51.950;7.668;2022-11-20T05:06:17;15.17;;;10.37;;
5730;SDS011;2890;51.950;7.668;2022-11-20T05:08:45;13.60;;;9.80;;
5730;SDS011;2890;51.950;7.668;2022-11-20T05:11:12;17.40;;;10.00;;
5730;SDS011;2890;51.950;7.668;2022-11-20T05:13:40;15.13;;;10.10;;
5730;SDS011;2890;51.950;7.668;2022-11-20T05:16:12;19.10;;;11.70;;
5730;SDS011;2890;51.950;7.668;2022-11-20T05:18:39;15.53;;;10.60;;
5730;SDS011;2890;51.950;7.668;2022-11-20T05:21:07;15.80;;;9.77;;
5730;SDS011;2890;51.950;7.668;2022-11-20T05:23:34;15.97;;;10.60;;
5730;SDS011;2890;51.950;7.668;2022-11-20T05:26:02;18.00;;;10.20;;
5730;SDS011;2890;51.950;7.668;2022-11-20T05:28:34;16.07;;;10.50;;
5730;SDS011;2890;51.950;7.668;2022-11-20T05:31:14;15.53;;;10.07;;
5730;SDS011;2890;51.950;7.668;2022-11-20T05:33:41;15.50;;;10.60;;
5730;SDS011;2890;51.950;7.668;2022-11-20T05:36:09;15.03;;;9.97;;
5730;SDS011;2890;51.950;7.668;2022-11-20T05:38:36;19.53;;;11.30;;
5730;SDS011;2890;51.950;7.668;2022-11-20T05:41:04;15.93;;;10.07;;
5730;SDS011;2890;51.950;7.668;2022-11-20T05:43:32;14.83;;;10.00;;
5730;SDS011;2890;51.950;7.668;2022-11-20T05:46:00;14.83;;;9.77;;
5730;SDS011;2890;51.950;7.668;2022-11-20T05:48:28;14.13;;;9.70;;
5730;SDS011;2890;51.950;7.668;2022-11-20T05:50:56;17.47;;;11.07;;
5730;SDS011;2890;51.950;7.668;2022-11-20T05:53:23;17.50;;;10.30;;
5730;SDS011;2890;51.950;7.668;2022-11-20T05:55:56;17.17;;;9.90;;
5730;SDS011;2890;51.950;7.668;2022-11-20T05:58:23;19.80;;;9.97;;
5730;SDS011;2890;51.950;7.668;2022-11-20T06:00:50;16.93;;;10.63;;
5730;SDS011;2890;51.950;7.668;2022-11-20T06:03:17;19.30;;;10.67;;
5730;SDS011;2890;51.950;7.668;2022-11-20T06:05:45;14.00;;;9.97;;
5730;SDS011;2890;51.950;7.668;2022-11-20T06:08:12;16.93;;;10.33;;
5730;SDS011;2890;51.950;7.668;2022-11-20T06:10:39;17.60;;;10.57;;
5730;SDS011;2890;51.950;7.668;2022-11-20T06:13:06;14.27;;;9.80;;
5730;SDS011;2890;51.950;7.668;2022-11-20T06:15:33;18.73;;;11.23;;
5730;SDS011;2890;51.950;7.668;2022-11-20T06:18:00;20.33;;;10.83;;
5730;SDS011;2890;51.950;7.668;2022-11-20T06:20:27;23.27;;;12.07;;
5730;SDS011;2890;51.950;7.668;2022-11-20T06:22:56;19.73;;;11.30;;
5730;SDS011;2890;51.950;7.668;2022-11-20T06:25:23;21.60;;;11.47;;
5730;SDS011;2890;51.950;7.668;2022-11-20T06:27:50;20.07;;;11.70;;
5730;SDS011;2890;51.950;7.668;2022-11-20T06:30:17;21.03;;;11.43;;
5730;SDS011;2890;51.950;7.668;2022-11-20T06:32:44;26.67;;;13.57;;
5730;SDS011;2890;51.950;7.668;2022-11-20T06:35:11;27.47;;;12.57;;
5730;SDS011;2890;51.950;7.668;2022-11-20T06:37:38;26.33;;;13.67;;
5730;SDS011;2890;51.950;7.668;2022-11-20T06:40:07;25.40;;;12.83;;
5730;SDS011;2890;51.950;7.668;2022-11-20T06:42:34;21.20;;;11.63;;
5730;SDS011;2890;51.950;7.668;2022-11-20T06:45:02;25.83;;;13.23;;
5730;SDS011;2890;51.950;7.668;2022-11-20T06:47:29;29.97;;;13.27;;
5730;SDS011;2890;51.950;7.668;2022-11-20T06:49:56;29.67;;;13.37;;
5730;SDS011;2890;51.950;7.668;2022-11-20T06:52:23;29.50;;;13.43;;
5730;SDS011;2890;51.950;7.668;2022-11-20T06:54:50;31.23;;;13.57;;
5730;SDS011;2890;51.950;7.668;2022-11-20T06:57:18;26.20;;;13.50;;
5730;SDS011;2890;51.950;7.668;2022-11-20T06:59:46;25.10;;;12.17;;
5730;SDS011;2890;51.950;7.668;2022-11-20T07:02:13;26.57;;;13.43;;
5730;SDS011;2890;51.950;7.668;2022-11-20T07:04:40;24.30;;;12.83;;
5730;SDS011;2890;51.950;7.668;2022-11-20T07:07:07;37.33;;;15.63;;
5730;SDS011;2890;51.950;7.668;2022-11-20T07:09:35;34.20;;;14.03;;
5730;SDS011;2890;51.950;7.668;2022-11-20T07:12:02;30.13;;;14.13;;
5730;SDS011;2890;51.950;7.668;2022-11-20T07:14:30;27.80;;;14.30;;
5730;SDS011;2890;51.950;7.668;2022-11-20T07:16:57;23.50;;;12.60;;
5730;SDS011;2890;51.950;7.668;2022-11-20T07:19:24;31.60;;;14.37;;
5730;SDS011;2890;51.950;7.668;2022-11-20T07:21:51;31.23;;;13.50;;
5730;SDS011;2890;51.950;7.668;2022-11-20T07:24:18;31.87;;;14.53;;
5730;SDS011;2890;51.950;7.668;2022-11-20T07:26:46;35.07;;;14.40;;
5730;SDS011;2890;51.950;7.668;2022-11-20T07:29:14;38.03;;;15.20;;
5730;SDS011;2890;51.950;7.668;2022-11-20T07:31:42;39.93;;;16.33;;
5730;SDS011;2890;51.950;7.668;2022-11-20T07:34:10;35.97;;;15.67;;
5730;SDS011;2890;51.950;7.668;2022-11-20T07:36:37;35.17;;;15.10;;
5730;SDS011;2890;51.950;7.668;2022-11-20T07:39:04;37.77;;;15.83;;
5730;SDS011;2890;51.950;7.668;2022-11-20T07:41:31;37.33;;;16.83;;
5730;SDS011;2890;51.950;7.668;2022-11-20T07:43:58;50.50;;;16.87;;
5730;SDS011;2890;51.950;7.668;2022-11-20T07:46:25;42.87;;;17.20;;
5730;SDS011;2890;51.950;7.668;2022-11-20T07:48:53;46.47;;;17.50;;
5730;SDS011;2890;51.950;7.668;2022-11-20T07:51:20;46.53;;;18.37;;
5730;SDS011;2890;51.950;7.668;2022-11-20T07:53:50;42.43;;;17.70;;
5730;SDS011;2890;51.950;7.668;2022-11-20T07:56:17;47.90;;;18.03;;
5730;SDS011;2890;51.950;7.668;2022-11-20T07:58:44;41.03;;;18.20;;
5730;SDS011;2890;51.950;7.668;2022-11-20T08:01:11;40.60;;;17.30;;
5730;SDS011;2890;51.950;7.668;2022-11-20T08:03:38;42.33;;;17.73;;
5730;SDS011;2890;51.950;7.668;2022-11-20T08:06:07;42.20;;;18.43;;
5730;SDS011;2890;51.950;7.668;2022-11-20T08:08:34;38.60;;;17.63;;
5730;SDS011;2890;51.950;7.668;2022-11-20T08:11:01;44.40;;;18.10;;
5730;SDS011;2890;51.950;7.668;2022-11-20T08:13:54;37.50;;;16.90;;
5730;SDS011;2890;51.950;7.668;2022-11-20T08:16:41;40.77;;;17.37;;
5730;SDS011;2890;51.950;7.668;2022-11-20T08:19:08;40.80;;;18.83;;
5730;SDS011;2890;51.950;7.668;2022-11-20T08:21:36;36.83;;;17.30;;
5730;SDS011;2890;51.950;7.668;2022-11-20T08:24:04;40.80;;;17.80;;
5730;SDS011;2890;51.950;7.668;2022-11-20T08:26:31;40.43;;;18.13;;
5730;SDS011;2890;51.950;7.668;2022-11-20T08:28:58;41.90;;;18.10;;
5730;SDS011;2890;51.950;7.668;2022-11-20T08:31:26;40.67;;;17.63;;
5730;SDS011;2890;51.950;7.668;2022-11-20T08:33:53;38.13;;;16.83;;
5730;SDS011;2890;51.950;7.668;2022-11-20T08:36:20;46.93;;;18.47;;
5730;SDS011;2890;51.950;7.668;2022-11-20T08:38:49;36.50;;;17.23;;
5730;SDS011;2890;51.950;7.668;2022-11-20T08:41:16;39.47;;;17.73;;
5730;SDS011;2890;51.950;7.668;2022-11-20T08:43:51;35.10;;;17.40;;
5730;SDS011;2890;51.950;7.668;2022-11-20T08:46:18;37.63;;;16.70;;
5730;SDS011;2890;51.950;7.668;2022-11-20T08:48:45;33.87;;;17.50;;
5730;SDS011;2890;51.950;7.668;2022-11-20T08:51:12;42.50;;;17.20;;
5730;SDS011;2890;51.950;7.668;2022-11-20T08:53:39;36.60;;;18.30;;
5730;SDS011;2890;51.950;7.668;2022-11-20T08:56:08;38.43;;;18.93;;
5730;SDS011;2890;51.950;7.668;2022-11-20T08:58:36;35.83;;;19.10;;
5730;SDS011;2890;51.950;7.668;2022-11-20T09:01:03;42.00;;;18.07;;
5730;SDS011;2890;51.950;7.668;2022-11-20T09:03:30;33.33;;;17.60;;
5730;SDS011;2890;51.950;7.668;2022-11-20T09:05:58;28.47;;;16.10;;
5730;SDS011;2890;51.950;7.668;2022-11-20T09:08:25;28.80;;;16.63;;
5730;SDS011;2890;51.950;7.668;2022-11-20T09:10:53;33.17;;;15.67;;
5730;SDS011;2890;51.950;7.668;2022-11-20T09:13:22;26.80;;;14.40;;
5730;SDS011;2890;51.950;7.668;2022-11-20T09:15:52;28.83;;;13.80;;
5730;SDS011;2890;51.950;7.668;2022-11-20T09:18:19;23.67;;;13.83;;
5730;SDS011;2890;51.950;7.668;2022-11-20T09:20:46;27.47;;;14.30;;
5730;SDS011;2890;51.950;7.668;2022-11-20T09:23:14;25.30;;;14.60;;
5730;SDS011;2890;51.950;7.668;2022-11-20T09:25:41;28.10;;;14.83;;
5730;SDS011;2890;51.950;7.668;2022-11-20T09:28:22;21.30;;;14.53;;
5730;SDS011;2890;51.950;7.668;2022-11-20T09:30:49;22.17;;;14.10;;
5730;SDS011;2890;51.950;7.668;2022-11-20T09:33:16;24.33;;;14.90;;
5730;SDS011;2890;51.950;7.668;2022-11-20T09:35:44;20.03;;;13.67;;
5730;SDS011;2890;51.950;7.668;2022-11-20T09:38:11;23.00;;;14.60;;
5730;SDS011;2890;51.950;7.668;2022-11-20T09:40:40;19.13;;;13.37;;
5730;SDS011;2890;51.950;7.668;2022-11-20T09:43:11;20.17;;;13.30;;
5730;SDS011;2890;51.950;7.668;2022-11-20T09:45:46;19.37;;;12.63;;
5730;SDS011;2890;51.950;7.668;2022-11-20T09:48:19;22.87;;;13.37;;
5730;SDS011;2890;51.950;7.668;2022-11-20T09:50:49;18.80;;;11.97;;
5730;SDS011;2890;51.950;7.668;2022-11-20T09:53:20;17.07;;;11.57;;
5730;SDS011;2890;51.950;7.668;2022-11-20T09:55:51;15.50;;;11.93;;
5730;SDS011;2890;51.950;7.668;2022-11-20T09:58:21;18.60;;;12.80;;
5730;SDS011;2890;51.950;7.668;2022-11-20T10:00:52;15.60;;;11.53;;
5730;SDS011;2890;51.950;7.668;2022-11-20T10:03:22;16.70;;;11.90;;
5730;SDS011;2890;51.950;7.668;2022-11-20T10:05:54;17.17;;;12.13;;
5730;SDS011;2890;51.950;7.668;2022-11-20T10:08:22;17.80;;;11.90;;
5730;SDS011;2890;51.950;7.668;2022-11-20T10:10:52;20.13;;;12.30;;
5730;SDS011;2890;51.950;7.668;2022-11-20T10:13:24;16.13;;;11.80;;
5730;SDS011;2890;51.950;7.668;2022-11-20T10:15:58;16.67;;;11.10;;
5730;SDS011;2890;51.950;7.668;2022-11-20T10:18:32;16.87;;;11.30;;
5730;SDS011;2890;51.950;7.668;2022-11-20T10:21:06;16.47;;;11.63;;
5730;SDS011;2890;51.950;7.668;2022-11-20T10:23:49;17.03;;;11.60;;
5730;SDS011;2890;51.950;7.668;2022-11-20T10:26:19;20.53;;;11.87;;
5730;SDS011;2890;51.950;7.668;2022-11-20T10:28:54;17.57;;;10.97;;
5730;SDS011;2890;51.950;7.668;2022-11-20T10:31:27;18.90;;;12.20;;
5730;SDS011;2890;51.950;7.668;2022-11-20T10:33:55;15.70;;;11.17;;
5730;SDS011;2890;51.950;7.668;2022-11-20T10:36:24;15.53;;;11.10;;
5730;SDS011;2890;51.950;7.668;2022-11-20T10:38:54;18.00;;;11.80;;
5730;SDS011;2890;51.950;7.668;2022-11-20T10:41:24;17.13;;;11.27;;
5730;SDS011;2890;51.950;7.668;2022-11-20T10:43:54;18.63;;;11.10;;
5730;SDS011;2890;51.950;7.668;2022-11-20T10:46:24;17.33;;;11.83;;
5730;SDS011;2890;51.950;7.668;2022-11-20T10:48:53;15.13;;;11.07;;
5730;SDS011;2890;51.950;7.668;2022-11-20T10:51:29;15.93;;;11.50;;
5730;SDS011;2890;51.950;7.668;2022-11-20T10:53:58;16.50;;;11.03;;
5730;SDS011;2890;51.950;7.668;2022-11-20T10:56:31;15.23;;;10.73;;
5730;SDS011;2890;51.950;7.668;2022-11-20T10:59:10;15.03;;;10.47;;
5730;SDS011;2890;51.950;7.668;2022-11-20T11:01:39;15.83;;;10.77;;
5730;SDS011;2890;51.950;7.668;2022-11-20T11:04:13;14.03;;;9.67;;
5730;SDS011;2890;51.950;7.668;2022-11-20T11:06:46;14.83;;;10.43;;
5730;SDS011;2890;51.950;7.668;2022-11-20T11:09:15;11.80;;;8.77;;
5730;SDS011;2890;51.950;7.668;2022-11-20T11:11:43;14.10;;;10.00;;
5730;SDS011;2890;51.950;7.668;2022-11-20T11:14:11;12.83;;;10.33;;
5730;SDS011;2890;51.950;7.668;2022-11-20T11:16:40;15.03;;;11.03;;
5730;SDS011;2890;51.950;7.668;2022-11-20T11:19:16;13.50;;;10.20;;
5730;SDS011;2890;51.950;7.668;2022-11-20T11:21:46;16.20;;;10.20;;
5730;SDS011;2890;51.950;7.668;2022-11-20T11:24:19;16.40;;;10.77;;
5730;SDS011;2890;51.950;7.668;2022-11-20T11:26:51;16.90;;;11.27;;
5730;SDS011;2890;51.950;7.668;2022-11-20T11:29:18;14.87;;;10.87;;
5730;SDS011;2890;51.950;7.668;2022-11-20T11:31:45;16.40;;;11.27;;
5730;SDS011;2890;51.950;7.668;2022-11-20T11:34:13;16.43;;;10.83;;
5730;SDS011;2890;51.950;7.668;2022-11-20T11:36:42;17.10;;;11.07;;
5730;SDS011;2890;51.950;7.668;2022-11-20T11:39:11;15.87;;;10.53;;
5730;SDS011;2890;51.950;7.668;2022-11-20T11:41:40;11.50;;;9.03;;
5730;SDS011;2890;51.950;7.668;2022-11-20T11:44:14;9.57;;;7.30;;
5730;SDS011;2890;51.950;7.668;2022-11-20T11:47:00;13.20;;;8.10;;
5730;SDS011;2890;51.950;7.668;2022-11-20T11:49:27;10.37;;;7.27;;
5730;SDS011;2890;51.950;7.668;2022-11-20T11:51:59;10.70;;;8.27;;
5730;SDS011;2890;51.950;7.668;2022-11-20T11:54:28;11.40;;;7.90;;
5730;SDS011;2890;51.950;7.668;2022-11-20T11:56:58;11.47;;;8.23;;
5730;SDS011;2890;51.950;7.668;2022-11-20T11:59:28;11.43;;;8.23;;
5730;SDS011;2890;51.950;7.668;2022-11-20T12:02:01;9.93;;;6.53;;
5730;SDS011;2890;51.950;7.668;2022-11-20T12:04:37;9.00;;;6.43;;
5730;SDS011;2890;51.950;7.668;2022-11-20T12:07:10;12.10;;;7.80;;
5730;SDS011;2890;51.950;7.668;2022-11-20T12:09:41;8.30;;;6.37;;
5730;SDS011;2890;51.950;7.668;2022-11-20T12:12:11;9.37;;;8.27;;
5730;SDS011;2890;51.950;7.668;2022-11-20T12:14:40;9.07;;;6.83;;
5730;SDS011;2890;51.950;7.668;2022-11-20T12:17:14;9.53;;;7.80;;
5730;SDS011;2890;51.950;7.668;2022-11-20T12:19:43;8.13;;;5.90;;
5730;SDS011;2890;51.950;7.668;2022-11-20T12:22:13;9.20;;;7.97;;
5730;SDS011;2890;51.950;7.668;2022-11-20T12:24:50;8.30;;;6.50;;
5730;SDS011;2890;51.950;7.668;2022-11-20T12:27:28;10.10;;;8.40;;
5730;SDS011;2890;51.950;7.668;2022-11-20T12:30:04;8.90;;;6.97;;
5730;SDS011;2890;51.950;7.668;2022-11-20T12:32:41;7.10;;;6.27;;
5730;SDS011;2890;51.950;7.668;2022-11-20T12:35:14;8.10;;;6.53;;
5730;SDS011;2890;51.950;7.668;2022-11-20T12:37:46;8.37;;;5.90;;
5730;SDS011;2890;51.950;7.668;2022-11-20T12:40:18;9.40;;;7.43;;
5730;SDS011;2890;51.950;7.668;2022-11-20T12:42:52;9.57;;;6.60;;
5730;SDS011;2890;51.950;7.668;2022-11-20T12:45:57;7.37;;;6.50;;
5730;SDS011;2890;51.950;7.668;2022-11-20T12:51:17;10.43;;;6.90;;
5730;SDS011;2890;51.950;7.668;2022-11-20T12:53:49;12.57;;;8.00;;
5730;SDS011;2890;51.950;7.668;2022-11-20T12:56:21;10.37;;;8.77;;
5730;SDS011;2890;51.950;7.668;2022-11-20T12:58:55;15.23;;;9.83;;
5730;SDS011;2890;51.950;7.668;2022-11-20T13:01:24;12.97;;;8.63;;
5730;SDS011;2890;51.950;7.668;2022-11-20T13:04:08;12.90;;;9.30;;
5730;SDS011;2890;51.950;7.668;2022-11-20T13:06:36;13.47;;;10.30;;
5730;SDS011;2890;51.950;7.668;2022-11-20T13:09:06;15.73;;;9.87;;
5730;SDS011;2890;51.950;7.668;2022-11-20T13:11:37;13.53;;;8.97;;
5730;SDS011;2890;51.950;7.668;2022-11-20T13:14:09;15.50;;;9.93;;
5730;SDS011;2890;51.950;7.668;2022-11-20T13:16:40;15.10;;;10.37;;
5730;SDS011;2890;51.950;7.668;2022-11-20T13:19:11;18.73;;;12.03;;
5730;SDS011;2890;51.950;7.668;2022-11-20T13:21:40;16.77;;;11.67;;
5730;SDS011;2890;51.950;7.668;2022-11-20T13:24:19;16.87;;;10.57;;
5730;SDS011;2890;51.950;7.668;2022-11-20T13:26:48;18.70;;;11.50;;
5730;SDS011;2890;51.950;7.668;2022-11-20T13:29:16;17.07;;;11.80;;
5730;SDS011;2890;51.950;7.668;2022-11-20T13:31:45;15.60;;;12.13;;
5730;SDS011;2890;51.950;7.668;2022-11-20T13:34:13;18.87;;;12.17;;
5730;SDS011;2890;51.950;7.668;2022-11-20T13:36:48;18.43;;;12.13;;
5730;SDS011;2890;51.950;7.668;2022-11-20T13:39:24;21.97;;;12.30;;
5730;SDS011;2890;51.950;7.668;2022-11-20T13:41:53;20.03;;;12.97;;
5730;SDS011;2890;51.950;7.668;2022-11-20T13:44:23;19.40;;;12.37;;
5730;SDS011;2890;51.950;7.668;2022-11-20T13:46:51;21.03;;;13.80;;
5730;SDS011;2890;51.950;7.668;2022-11-20T13:49:26;20.27;;;13.47;;
5730;SDS011;2890;51.950;7.668;2022-11-20T13:51:56;24.07;;;15.27;;
5730;SDS011;2890;51.950;7.668;2022-11-20T13:57:26;24.83;;;15.00;;
5730;SDS011;2890;51.950;7.668;2022-11-20T13:59:58;23.77;;;14.10;;
5730;SDS011;2890;51.950;7.668;2022-11-20T14:02:28;24.77;;;17.20;;
5730;SDS011;2890;51.950;7.668;2022-11-20T14:04:57;23.23;;;15.50;;
5730;SDS011;2890;51.950;7.668;2022-11-20T14:07:27;22.60;;;15.70;;
5730;SDS011;2890;51.950;7.668;2022-11-20T14:09:58;23.87;;;14.40;;
5730;SDS011;2890;51.950;7.668;2022-11-20T14:12:28;26.43;;;17.30;;
5730;SDS011;2890;51.950;7.668;2022-11-20T14:14:56;23.43;;;15.10;;
5730;SDS011;2890;51.950;7.668;2022-11-20T14:17:24;26.47;;;17.10;;
5730;SDS011;2890;51.950;7.668;2022-11-20T14:19:51;22.23;;;14.33;;
5730;SDS011;2890;51.950;7.668;2022-11-20T14:22:20;24.10;;;16.73;;
5730;SDS011;2890;51.950;7.668;2022-11-20T14:24:47;20.63;;;13.67;;
5730;SDS011;2890;51.950;7.668;2022-11-20T14:27:15;24.17;;;17.23;;
5730;SDS011;2890;51.950;7.668;2022-11-20T14:29:44;22.57;;;13.43;;
5730;SDS011;2890;51.950;7.668;2022-11-20T14:32:14;24.20;;;16.77;;
5730;SDS011;2890;51.950;7.668;2022-11-20T14:34:41;23.73;;;15.20;;
5730;SDS011;2890;51.950;7.668;2022-11-20T14:37:11;25.93;;;15.80;;
5730;SDS011;2890;51.950;7.668;2022-11-20T14:39:40;22.73;;;14.07;;
5730;SDS011;2890;51.950;7.668;2022-11-20T14:42:14;27.67;;;15.70;;
5730;SDS011;2890;51.950;7.668;2022-11-20T14:44:41;25.63;;;15.93;;
5730;SDS011;2890;51.950;7.668;2022-11-20T14:47:11;23.00;;;15.13;;
5730;SDS011;2890;51.950;7.668;2022-11-20T14:49:39;27.53;;;16.67;;
5730;SDS011;2890;51.950;7.668;2022-11-20T14:52:11;25.03;;;15.07;;
5730;SDS011;2890;51.950;7.668;2022-11-20T14:54:43;25.77;;;15.53;;
5730;SDS011;2890;51.950;7.668;2022-11-20T14:57:18;28.00;;;16.10;;
5730;SDS011;2890;51.950;7.668;2022-11-20T14:59:46;23.90;;;15.13;;
5730;SDS011;2890;51.950;7.668;2022-11-20T15:02:14;26.00;;;16.47;;
5730;SDS011;2890;51.950;7.668;2022-11-20T15:04:45;23.20;;;15.43;;
5730;SDS011;2890;51.950;7.668;2022-11-20T15:07:22;23.50;;;14.63;;
5730;SDS011;2890;51.950;7.668;2022-11-20T15:09:58;22.40;;;14.27;;
5730;SDS011;2890;51.950;7.668;2022-11-20T15:12:25;20.53;;;13.13;;